Time;durP1;ratioP1;P1;durP2;ratioP2;P2;SDS_P1;SDS_P2;PMS_P1;PMS_P2;Temp;Humidity;BMP_temperature;BMP_pressure;BME280_temperature;BME280_humidity;BME280_pressure;Samples;Min_cycle;Max_cycle;Signal;HPM_P1;HPM_P2
2022/05/06 00:00:06;;;;;;;35.15;26.70;;;10.70;99.90;;;;;;5086883;28;20048;-77
2022/05/06 00:02:31;;;;;;;40.42;26.75;;;10.70;99.90;;;;;;5105072;28;20027;-77
2022/05/06 00:04:57;;;;;;;42.08;28.25;;;10.70;99.90;;;;;;5081060;28;20376;-76
2022/05/06 00:07:22;;;;;;;39.53;27.42;;;10.60;99.90;;;;;;5096405;28;20134;-76
2022/05/06 00:09:48;;;;;;;40.05;27.58;;;11.40;99.90;;;;;;5080298;28;20228;-76
2022/05/06 00:12:17;;;;;;;41.65;29.27;;;10.60;99.90;;;;;;5080619;28;20498;-77
2022/05/06 00:14:44;;;;;;;39.88;28.20;;;10.50;99.90;;;;;;5100199;28;20249;-76
2022/05/06 00:17:10;;;;;;;41.40;28.60;;;10.50;99.90;;;;;;5102574;28;20054;-77
2022/05/06 00:19:35;;;;;;;39.60;27.38;;;10.40;99.90;;;;;;5100131;28;20410;-78
2022/05/06 00:22:01;;;;;;;42.17;28.67;;;10.40;99.90;;;;;;5103797;27;20044;-77
2022/05/06 00:24:28;;;;;;;40.80;27.77;;;9.70;99.90;;;;;;5099255;28;20154;-77
2022/05/06 00:26:54;;;;;;;40.20;27.90;;;11.40;99.90;;;;;;5107295;28;20040;-77
2022/05/06 00:29:20;;;;;;;37.75;27.60;;;10.40;99.90;;;;;;5081983;28;20036;-77
2022/05/06 00:31:45;;;;;;;36.92;27.35;;;10.40;99.90;;;;;;5106318;28;20039;-77
2022/05/06 00:34:11;;;;;;;38.83;28.20;;;10.30;99.90;;;;;;5106457;28;20499;-77
2022/05/06 00:36:37;;;;;;;42.08;28.35;;;10.30;99.90;;;;;;5107784;28;20039;-78
2022/05/06 00:39:04;;;;;;;41.17;28.88;;;10.30;99.90;;;;;;5083862;28;20545;-79
2022/05/06 00:41:36;;;;;;;41.60;27.77;;;10.30;99.90;;;;;;5091467;28;20147;-78
2022/05/06 00:44:04;;;;;;;45.35;30.85;;;10.50;99.90;;;;;;5101236;28;20043;-77
2022/05/06 00:46:31;;;;;;;47.42;30.52;;;10.10;99.90;;;;;;5107131;28;20529;-78
2022/05/06 00:48:57;;;;;;;41.67;28.63;;;10.10;99.90;;;;;;5107667;27;20039;-77
2022/05/06 00:51:23;;;;;;;51.83;32.45;;;9.90;99.90;;;;;;5099638;28;20052;-78
2022/05/06 00:53:50;;;;;;;48.60;33.30;;;11.30;99.90;;;;;;5109293;28;20040;-77
2022/05/06 00:56:17;;;;;;;46.20;30.52;;;9.70;99.90;;;;;;5102791;27;20040;-78
2022/05/06 00:58:44;;;;;;;44.00;30.08;;;11.00;99.90;;;;;;5108947;28;20100;-77
2022/05/06 01:01:11;;;;;;;46.00;30.73;;;9.50;99.90;;;;;;5108511;27;20035;-77
2022/05/06 01:03:36;;;;;;;43.40;29.95;;;9.70;99.90;;;;;;5100746;28;20475;-78
2022/05/06 01:06:07;;;;;;;41.65;30.45;;;9.70;99.90;;;;;;5103271;27;20565;-77
2022/05/06 01:08:34;;;;;;;41.25;29.35;;;9.70;99.90;;;;;;5104140;28;20047;-77
2022/05/06 01:11:00;;;;;;;50.28;33.15;;;9.70;99.90;;;;;;5098221;27;20047;-77
2022/05/06 01:13:27;;;;;;;47.25;29.92;;;9.80;99.90;;;;;;5100509;27;20119;-77
2022/05/06 01:15:56;;;;;;;45.03;31.13;;;9.80;99.90;;;;;;5107216;28;20490;-76
2022/05/06 01:18:22;;;;;;;45.33;29.60;;;9.80;99.90;;;;;;5101005;28;20035;-77
2022/05/06 01:20:53;;;;;;;45.08;30.77;;;10.70;99.90;;;;;;5104831;27;20039;-77
2022/05/06 01:23:20;;;;;;;40.20;28.98;;;9.30;99.90;;;;;;5109357;28;20122;-77
2022/05/06 01:25:46;;;;;;;39.17;28.15;;;9.70;99.90;;;;;;5101804;27;20434;-77
2022/05/06 01:28:13;;;;;;;37.03;27.60;;;9.70;99.90;;;;;;5078106;28;20092;-76
2022/05/06 01:30:48;;;;;;;41.60;28.67;;;9.60;99.90;;;;;;5108669;27;20478;-76
2022/05/06 01:33:21;;;;;;;34.05;25.25;;;9.80;99.90;;;;;;5091349;27;20155;-77
2022/05/06 01:35:51;;;;;;;36.73;25.00;;;9.50;99.90;;;;;;5076165;28;20261;-76
2022/05/06 01:38:23;;;;;;;36.17;25.38;;;10.30;99.90;;;;;;5100106;27;20297;-76
2022/05/06 01:40:57;;;;;;;36.40;23.70;;;9.50;99.90;;;;;;5083251;28;20583;-76
2022/05/06 01:43:25;;;;;;;34.22;23.77;;;9.50;99.90;;;;;;5098117;27;20123;-77
2022/05/06 01:45:54;;;;;;;30.90;21.90;;;9.10;99.90;;;;;;5090695;27;20440;-76
2022/05/06 01:48:22;;;;;;;31.30;21.45;;;9.30;99.90;;;;;;5096001;27;20126;-76
2022/05/06 01:50:49;;;;;;;30.02;20.90;;;9.50;99.90;;;;;;5101041;27;20066;-76
2022/05/06 01:53:16;;;;;;;31.75;21.55;;;9.50;99.90;;;;;;5098059;28;20514;-76
2022/05/06 01:55:45;;;;;;;30.67;21.10;;;9.40;99.90;;;;;;5102246;27;20036;-77
2022/05/06 01:58:11;;;;;;;28.13;19.98;;;9.40;99.90;;;;;;5105092;27;20050;-77
2022/05/06 02:00:36;;;;;;;28.27;19.42;;;9.40;99.90;;;;;;5102439;28;20036;-77
2022/05/06 02:03:04;;;;;;;28.65;20.65;;;9.40;99.90;;;;;;5103257;27;20116;-76
2022/05/06 02:05:30;;;;;;;33.45;21.38;;;9.30;99.90;;;;;;5106037;27;20051;-77
2022/05/06 02:07:56;;;;;;;29.00;19.65;;;9.20;99.90;;;;;;5102032;28;20040;-77
2022/05/06 02:10:25;;;;;;;26.10;20.17;;;9.20;99.90;;;;;;5100674;28;20115;-77
2022/05/06 02:12:54;;;;;;;29.60;19.95;;;9.20;99.90;;;;;;5098038;28;20372;-76
2022/05/06 02:15:19;;;;;;;28.55;20.48;;;9.20;99.90;;;;;;5099480;28;20063;-77
2022/05/06 02:17:45;;;;;;;25.17;19.05;;;11.00;99.90;;;;;;5105845;28;20124;-76
2022/05/06 02:20:12;;;;;;;25.95;19.75;;;9.20;99.90;;;;;;5086717;28;20349;-76
2022/05/06 02:22:42;;;;;;;28.75;19.58;;;9.20;99.90;;;;;;5097515;28;20040;-76
2022/05/06 02:25:09;;;;;;;28.23;20.63;;;8.70;99.90;;;;;;5072124;28;20039;-75
2022/05/06 02:27:38;;;;;;;25.80;20.80;;;9.10;99.90;;;;;;5087461;28;20126;-76
2022/05/06 02:35:35;;;;;;;29.45;20.60;;;9.10;99.90;;;;;;5108759;28;20044;-76
2022/05/06 02:38:01;;;;;;;28.25;20.95;;;10.60;99.90;;;;;;5098529;27;20123;-76
2022/05/06 02:40:27;;;;;;;28.08;20.60;;;9.00;99.90;;;;;;5085966;28;20039;-77
2022/05/06 02:42:53;;;;;;;29.08;21.58;;;9.00;99.90;;;;;;5098909;28;20063;-76
2022/05/06 02:45:18;;;;;;;51.33;29.13;;;9.00;99.90;;;;;;5078536;28;20137;-76
2022/05/06 02:47:45;;;;;;;50.13;30.13;;;8.90;99.90;;;;;;5103479;28;20518;-77
2022/05/06 02:50:10;;;;;;;58.67;34.55;;;8.90;99.90;;;;;;5097236;28;20078;-77
2022/05/06 02:52:36;;;;;;;105.40;38.75;;;8.80;99.90;;;;;;5096836;28;20407;-77
2022/05/06 02:55:02;;;;;;;151.02;39.50;;;8.70;99.90;;;;;;5099238;28;20043;-77
2022/05/06 02:57:27;;;;;;;161.35;39.53;;;8.70;99.90;;;;;;5096538;28;20100;-78
2022/05/06 02:59:53;;;;;;;58.92;37.17;;;8.60;99.90;;;;;;5101151;28;20043;-77
2022/05/06 03:02:19;;;;;;;99.40;39.05;;;10.10;99.90;;;;;;5103081;28;20849;-77
2022/05/06 03:04:44;;;;;;;210.05;41.92;;;8.60;99.90;;;;;;5081714;28;20051;-77
2022/05/06 03:07:10;;;;;;;244.85;42.55;;;8.90;99.90;;;;;;5088552;28;20681;-78
2022/05/06 03:09:39;;;;;;;55.90;35.60;;;8.70;99.90;;;;;;5088903;28;20036;-77
2022/05/06 03:12:05;;;;;;;59.92;36.00;;;8.70;99.90;;;;;;5088027;28;20089;-78
2022/05/06 03:14:31;;;;;;;133.88;39.03;;;8.70;99.90;;;;;;5094921;28;20436;-77
2022/05/06 03:16:56;;;;;;;73.95;38.85;;;8.80;99.90;;;;;;5080840;28;20038;-77
2022/05/06 03:19:22;;;;;;;70.88;37.22;;;8.80;99.90;;;;;;5099887;28;20464;-77
2022/05/06 03:21:53;;;;;;;69.53;39.72;;;8.90;99.90;;;;;;5101180;28;20046;-77
2022/05/06 03:24:19;;;;;;;137.57;38.40;;;9.00;99.90;;;;;;5083604;28;20051;-77
2022/05/06 03:26:45;;;;;;;262.98;43.92;;;9.00;99.90;;;;;;5085334;28;20046;-77
2022/05/06 03:29:12;;;;;;;225.50;40.15;;;9.30;99.90;;;;;;5106644;28;20044;-77
2022/05/06 03:31:38;;;;;;;221.55;37.50;;;9.00;99.90;;;;;;5101166;28;20035;-76
2022/05/06 03:34:05;;;;;;;57.38;33.90;;;9.00;99.90;;;;;;5066001;28;20124;-77
2022/05/06 03:36:32;;;;;;;50.08;32.15;;;10.50;99.90;;;;;;5106905;28;20120;-77
2022/05/06 03:38:58;;;;;;;50.95;30.95;;;9.00;99.90;;;;;;5102439;28;20046;-77
2022/05/06 03:41:23;;;;;;;71.82;33.47;;;9.10;99.90;;;;;;5101542;28;20051;-77
2022/05/06 03:43:49;;;;;;;59.97;35.42;;;10.10;99.90;;;;;;5106910;28;20104;-77
2022/05/06 03:46:14;;;;;;;63.53;35.10;;;9.10;99.90;;;;;;5098839;28;20043;-77
2022/05/06 03:48:40;;;;;;;89.38;36.47;;;9.90;99.90;;;;;;5104542;28;20047;-77
2022/05/06 03:51:21;;;;;;;394.50;51.25;;;9.30;99.90;;;;;;5098712;28;20531;-77
2022/05/06 03:53:57;;;;;;;65.80;35.42;;;9.40;99.90;;;;;;5101882;28;20394;-76
2022/05/06 03:56:24;;;;;;;64.82;35.45;;;9.40;99.90;;;;;;5099933;28;20564;-77
2022/05/06 03:58:51;;;;;;;136.30;39.45;;;9.40;99.90;;;;;;5099072;28;20570;-77
2022/05/06 04:01:19;;;;;;;65.88;33.78;;;9.40;99.90;;;;;;5084802;28;20039;-78
2022/05/06 04:03:46;;;;;;;305.25;43.92;;;9.50;99.90;;;;;;5080315;28;20388;-77
2022/05/06 04:06:14;;;;;;;189.48;43.25;;;10.80;99.90;;;;;;5086928;28;20071;-76
2022/05/06 04:08:41;;;;;;;180.20;39.28;;;9.50;99.90;;;;;;5107049;28;20043;-76
2022/05/06 04:11:11;;;;;;;185.65;38.30;;;9.50;99.90;;;;;;5106247;28;20114;-76
2022/05/06 04:13:37;;;;;;;193.75;36.58;;;9.50;99.90;;;;;;5099276;27;20109;-76
2022/05/06 04:16:03;;;;;;;165.25;36.20;;;9.90;99.90;;;;;;5085343;28;20063;-77
2022/05/06 04:18:29;;;;;;;221.45;39.65;;;9.40;99.90;;;;;;5086235;28;20399;-78
2022/05/06 04:23:39;;;;;;;;;;;10.70;99.90;;;;;;5104229;28;20048;-77
2022/05/06 04:26:07;;;;;;;189.88;38.60;;;9.30;99.90;;;;;;5099121;28;19924;-77
2022/05/06 04:28:34;;;;;;;214.48;42.75;;;9.30;99.90;;;;;;5108165;28;20035;-77
2022/05/06 04:31:01;;;;;;;198.32;41.20;;;9.10;99.90;;;;;;5107623;28;20100;-77
2022/05/06 04:33:27;;;;;;;192.30;40.67;;;9.30;99.90;;;;;;5098889;28;20040;-77
2022/05/06 04:35:57;;;;;;;181.93;39.05;;;9.20;99.90;;;;;;5091327;28;20035;-76
2022/05/06 04:38:23;;;;;;;73.18;34.88;;;10.20;99.90;;;;;;5091950;28;20507;-76
2022/05/06 04:40:50;;;;;;;200.07;40.45;;;9.10;99.90;;;;;;5091137;28;20046;-77
2022/05/06 04:43:20;;;;;;;317.20;52.50;;;9.20;99.90;;;;;;5104181;28;20036;-77
2022/05/06 04:45:47;;;;;;;130.20;37.20;;;9.00;99.90;;;;;;5103785;28;20101;-77
2022/05/06 04:48:13;;;;;;;173.45;39.20;;;9.20;99.90;;;;;;5087607;28;20047;-77
2022/05/06 04:50:40;;;;;;;195.18;39.00;;;9.00;99.90;;;;;;5099603;28;20051;-77
2022/05/06 04:53:07;;;;;;;212.85;42.83;;;9.30;99.90;;;;;;5089005;28;20134;-77
2022/05/06 04:55:38;;;;;;;153.13;36.95;;;9.20;99.90;;;;;;5091359;28;20043;-77
2022/05/06 04:58:04;;;;;;;164.90;36.58;;;9.10;99.90;;;;;;5100273;28;20067;-77
2022/05/06 05:00:31;;;;;;;131.50;36.30;;;9.30;99.90;;;;;;5109522;27;20110;-77
2022/05/06 05:02:58;;;;;;;132.68;37.30;;;9.30;99.90;;;;;;5103761;28;20043;-77
2022/05/06 05:05:24;;;;;;;153.13;41.67;;;9.20;99.90;;;;;;5103206;28;20060;-78
2022/05/06 05:07:50;;;;;;;79.65;34.65;;;9.20;99.90;;;;;;5089427;28;20067;-77
2022/05/06 05:10:16;;;;;;;128.40;32.17;;;9.90;99.90;;;;;;5110450;28;20408;-77
2022/05/06 05:12:41;;;;;;;137.27;39.35;;;9.00;99.90;;;;;;5097115;28;20081;-76
2022/05/06 05:15:08;;;;;;;77.25;32.20;;;8.90;99.90;;;;;;5087539;28;20043;-76
2022/05/06 05:17:33;;;;;;;110.68;31.45;;;7.80;99.90;;;;;;5106098;27;20119;-77
2022/05/06 05:20:00;;;;;;;107.78;34.85;;;10.50;99.90;;;;;;5096413;28;20460;-77
2022/05/06 05:22:26;;;;;;;128.40;32.08;;;9.20;99.90;;;;;;5082949;28;20040;-77
2022/05/06 05:24:51;;;;;;;100.00;29.45;;;8.80;99.90;;;;;;5087035;28;20043;-76
2022/05/06 05:27:17;;;;;;;114.80;31.83;;;8.70;99.90;;;;;;5097447;28;20491;-77
2022/05/06 05:29:43;;;;;;;135.20;34.92;;;9.20;99.90;;;;;;5084998;28;20126;-77
2022/05/06 05:32:09;;;;;;;168.18;33.92;;;9.00;99.90;;;;;;5095474;27;20051;-77
2022/05/06 05:34:35;;;;;;;153.20;33.40;;;9.20;99.90;;;;;;5079403;28;20036;-77
2022/05/06 05:37:01;;;;;;;101.63;31.02;;;9.20;99.90;;;;;;5084978;28;20036;-77
2022/05/06 05:39:27;;;;;;;111.88;31.27;;;9.10;99.90;;;;;;5096753;27;20032;-76
2022/05/06 05:41:53;;;;;;;203.18;38.42;;;9.10;99.90;;;;;;5098728;28;20040;-75
2022/05/06 05:49:48;;;;;;;118.10;35.53;;;9.30;99.90;;;;;;5098739;27;20043;-78
2022/05/06 05:52:14;;;;;;;133.82;34.78;;;8.40;99.90;;;;;;5105501;28;20055;-77
2022/05/06 05:54:40;;;;;;;179.18;38.92;;;9.30;99.90;;;;;;5104484;28;20047;-77
2022/05/06 05:57:06;;;;;;;144.43;35.08;;;9.40;99.90;;;;;;5105277;28;20066;-79
2022/05/06 05:59:33;;;;;;;122.10;35.40;;;9.40;99.90;;;;;;5107475;28;20035;-78
2022/05/06 06:02:01;;;;;;;141.15;33.35;;;10.60;99.90;;;;;;5104923;28;20355;-78
2022/05/06 06:04:27;;;;;;;114.38;32.03;;;9.40;99.90;;;;;;5101585;27;20408;-78
2022/05/06 06:06:53;;;;;;;140.55;36.30;;;9.20;99.90;;;;;;4402162;27;10000708;-77
2022/05/06 06:09:22;;;;;;;135.32;40.40;;;9.60;99.90;;;;;;5106333;27;20039;-79
2022/05/06 06:11:51;;;;;;;118.68;40.17;;;9.60;99.90;;;;;;5096429;27;20048;-75
2022/05/06 06:14:17;;;;;;;173.63;41.53;;;9.60;99.90;;;;;;5094519;27;20092;-78
2022/05/06 06:16:43;;;;;;;133.90;36.63;;;9.70;99.90;;;;;;5104182;27;20411;-76
2022/05/06 06:19:09;;;;;;;139.60;41.03;;;10.90;99.90;;;;;;5099990;27;20035;-77
2022/05/06 06:21:35;;;;;;;131.82;40.80;;;9.80;99.90;;;;;;5101490;28;20517;-77
2022/05/06 06:24:00;;;;;;;109.35;37.35;;;11.50;99.90;;;;;;5098319;28;20454;-77
2022/05/06 06:26:26;;;;;;;109.75;40.08;;;11.60;99.90;;;;;;5102665;27;20134;-76
2022/05/06 06:28:52;;;;;;;110.75;36.25;;;10.00;99.90;;;;;;5092447;27;20169;-76
2022/05/06 06:31:17;;;;;;;102.68;38.72;;;10.40;99.90;;;;;;5093556;28;20397;-77
2022/05/06 06:33:43;;;;;;;102.75;41.88;;;11.30;99.90;;;;;;5100130;28;20075;-76
2022/05/06 06:36:09;;;;;;;104.85;40.00;;;10.90;99.90;;;;;;5098977;28;20402;-76
2022/05/06 06:38:35;;;;;;;104.82;35.78;;;10.10;99.90;;;;;;5100800;28;20036;-75
2022/05/06 06:41:01;;;;;;;87.80;37.33;;;10.20;99.90;;;;;;5080366;28;20066;-75
2022/05/06 06:43:27;;;;;;;77.05;35.47;;;10.20;99.90;;;;;;5101990;28;20126;-77
2022/05/06 06:45:53;;;;;;;80.38;36.00;;;10.20;99.90;;;;;;5110764;27;20091;-77
2022/05/06 06:48:18;;;;;;;63.22;30.67;;;10.30;99.90;;;;;;5105512;27;20127;-76
2022/05/06 06:50:44;;;;;;;71.18;33.03;;;11.20;99.90;;;;;;5109740;27;20462;-77
2022/05/06 06:53:10;;;;;;;81.65;33.22;;;10.40;99.90;;;;;;5093811;28;20043;-76
2022/05/06 06:55:36;;;;;;;61.92;29.70;;;11.50;99.90;;;;;;5111693;27;20032;-76
2022/05/06 06:58:02;;;;;;;52.58;25.55;;;10.10;99.90;;;;;;5103795;28;20042;-76
2022/05/06 07:00:28;;;;;;;38.88;22.88;;;10.60;99.90;;;;;;5101519;28;20046;-77
2022/05/06 07:02:55;;;;;;;38.60;21.35;;;10.60;99.90;;;;;;5077028;28;20055;-77
2022/05/06 07:05:22;;;;;;;22.85;14.98;;;10.60;99.90;;;;;;5093954;28;20510;-78
2022/05/06 07:13:17;;;;;;;25.50;16.98;;;10.70;99.90;;;;;;5097381;27;20039;-77
2022/05/06 07:15:44;;;;;;;23.98;16.90;;;11.00;99.90;;;;;;5085337;28;20039;-77
2022/05/06 07:18:10;;;;;;;22.33;16.00;;;10.70;99.90;;;;;;5091266;28;20101;-73
2022/05/06 07:20:35;;;;;;;19.33;13.90;;;10.70;99.90;;;;;;5079911;28;20044;-74
2022/05/06 07:23:04;;;;;;;20.35;14.23;;;10.90;99.90;;;;;;5088491;27;20047;-74
2022/05/06 07:25:30;;;;;;;24.58;15.63;;;10.70;99.90;;;;;;5114783;27;20061;-73
2022/05/06 07:27:56;;;;;;;19.27;14.45;;;11.10;99.90;;;;;;5084828;28;20028;-72
2022/05/06 07:30:21;;;;;;;28.35;16.65;;;11.40;99.90;;;;;;5105692;28;20487;-75
2022/05/06 07:32:48;;;;;;;33.00;16.33;;;11.40;99.90;;;;;;5107672;28;20048;-74
2022/05/06 07:35:13;;;;;;;41.17;15.82;;;11.50;99.90;;;;;;5093746;27;20039;-74
2022/05/06 07:37:39;;;;;;;38.35;15.85;;;12.10;99.90;;;;;;5108528;28;20088;-75
2022/05/06 07:40:06;;;;;;;22.67;14.35;;;11.60;99.90;;;;;;5106519;28;20075;-75
2022/05/06 07:42:33;;;;;;;24.55;15.32;;;11.70;99.90;;;;;;5093534;28;20489;-74
2022/05/06 07:44:59;;;;;;;18.00;13.73;;;11.70;99.90;;;;;;5102947;28;20530;-75
2022/05/06 07:47:24;;;;;;;19.85;14.07;;;11.70;99.90;;;;;;5100570;28;20035;-73
2022/05/06 07:49:51;;;;;;;17.23;13.10;;;11.80;99.90;;;;;;5107120;28;20044;-73
2022/05/06 07:52:17;;;;;;;22.30;12.07;;;11.80;99.90;;;;;;5113838;28;20043;-74
2022/05/06 07:54:42;;;;;;;13.05;11.15;;;12.20;99.90;;;;;;5098929;28;20050;-75
2022/05/06 07:57:08;;;;;;;18.15;11.02;;;12.10;99.90;;;;;;5100470;28;20090;-73
2022/05/06 07:59:33;;;;;;;13.00;11.43;;;12.10;99.90;;;;;;5099207;28;20071;-77
2022/05/06 08:04:48;;;;;;;14.02;9.85;;;12.90;99.90;;;;;;5095477;28;20052;-77
2022/05/06 08:07:14;;;;;;;10.43;9.38;;;12.40;99.90;;;;;;5103315;28;20097;-74
2022/05/06 08:09:41;;;;;;;12.45;9.35;;;13.10;99.90;;;;;;5081146;28;20479;-73
2022/05/06 08:12:07;;;;;;;13.63;9.63;;;12.30;99.90;;;;;;5107808;28;20396;-72
2022/05/06 08:14:33;;;;;;;9.82;8.80;;;12.40;99.90;;;;;;5107111;28;20114;-75
2022/05/06 08:16:59;;;;;;;13.27;9.07;;;12.40;99.90;;;;;;5099643;28;20119;-75
2022/05/06 08:19:25;;;;;;;10.00;8.77;;;12.50;99.90;;;;;;5099679;28;20051;-74
2022/05/06 08:21:52;;;;;;;9.95;8.93;;;12.50;99.90;;;;;;5106774;28;20111;-73
2022/05/06 08:24:18;;;;;;;26.45;9.05;;;12.60;99.90;;;;;;5098449;28;20052;-75
2022/05/06 08:26:45;;;;;;;9.93;8.02;;;12.60;99.90;;;;;;5108154;28;20096;-73
2022/05/06 08:29:11;;;;;;;8.43;7.63;;;12.60;99.90;;;;;;5104900;28;20044;-74
2022/05/06 08:31:40;;;;;;;12.50;6.82;;;12.70;99.90;;;;;;5101979;28;20070;-74
2022/05/06 08:34:07;;;;;;;11.30;7.70;;;12.80;99.90;;;;;;5106377;28;20086;-75
2022/05/06 08:36:34;;;;;;;8.15;7.35;;;12.80;99.90;;;;;;5108288;28;20075;-73
2022/05/06 08:39:00;;;;;;;11.95;6.85;;;12.90;99.90;;;;;;5107887;28;20479;-73
2022/05/06 08:41:27;;;;;;;8.07;7.38;;;12.90;99.90;;;;;;5108328;28;20092;-71
2022/05/06 08:43:53;;;;;;;7.68;7.00;;;13.00;99.90;;;;;;5104274;28;20090;-72
2022/05/06 08:51:53;;;;;;;9.55;8.60;;;13.20;99.90;;;;;;5105930;28;20529;-72
2022/05/06 08:54:19;;;;;;;6.97;6.35;;;13.20;99.90;;;;;;5092083;28;20047;-72
2022/05/06 08:56:44;;;;;;;7.70;7.00;;;13.30;99.90;;;;;;5109646;28;20519;-73
2022/05/06 08:59:10;;;;;;;7.18;6.22;;;13.40;99.90;;;;;;5109951;28;20123;-73
2022/05/06 09:01:36;;;;;;;9.73;6.75;;;13.40;99.90;;;;;;5109821;28;20031;-75
2022/05/06 09:04:01;;;;;;;8.55;6.50;;;13.40;99.90;;;;;;5109165;28;20039;-73
2022/05/06 09:06:29;;;;;;;8.00;6.82;;;13.50;99.90;;;;;;5093659;28;20047;-73
2022/05/06 09:08:59;;;;;;;11.00;6.50;;;13.60;99.90;;;;;;5105786;28;20484;-73
2022/05/06 09:14:16;;;;;;;7.13;6.43;;;13.70;99.90;;;;;;5111182;28;20386;-72
2022/05/06 09:16:42;;;;;;;10.68;7.00;;;13.70;99.90;;;;;;5099787;28;20082;-72
2022/05/06 09:19:15;;;;;;;6.60;6.00;;;13.60;99.90;;;;;;5111285;27;20075;-72
2022/05/06 09:22:05;;;;;;;6.55;5.97;;;13.80;99.90;;;;;;5104297;28;20104;-72
2022/05/06 09:24:35;;;;;;;7.15;6.45;;;13.80;99.90;;;;;;5106953;28;20552;-72
2022/05/06 09:27:08;;;;;;;6.82;6.20;;;13.90;99.90;;;;;;5111313;28;20423;-72
2022/05/06 09:29:34;;;;;;;5.72;5.32;;;13.90;99.90;;;;;;5109804;28;20059;-73
2022/05/06 09:32:13;;;;;;;9.20;5.90;;;14.00;99.90;;;;;;5108540;28;20537;-72
2022/05/06 09:34:44;;;;;;;5.93;5.43;;;14.20;99.90;;;;;;5108836;28;20411;-73
2022/05/06 09:37:09;;;;;;;9.52;6.15;;;14.30;99.90;;;;;;5109280;28;20039;-72
2022/05/06 09:39:38;;;;;;;5.93;5.43;;;14.40;99.90;;;;;;5107633;28;20039;-72
2022/05/06 09:42:05;;;;;;;6.93;5.85;;;14.40;99.90;;;;;;5092152;28;20420;-73
2022/05/06 09:44:33;;;;;;;6.25;5.75;;;14.50;99.90;;;;;;5092115;28;20047;-74
2022/05/06 09:47:12;;;;;;;7.00;6.40;;;14.60;99.90;;;;;;5108466;28;20443;-73
2022/05/06 09:49:39;;;;;;;6.95;6.22;;;14.70;99.90;;;;;;5082594;28;20043;-74
2022/05/06 09:52:13;;;;;;;5.32;4.93;;;14.80;99.90;;;;;;5103354;28;20134;-74
2022/05/06 09:54:41;;;;;;;11.30;6.00;;;14.90;99.90;;;;;;5103547;28;20071;-74
2022/05/06 09:57:08;;;;;;;11.25;5.43;;;15.10;99.90;;;;;;5081477;28;20423;-74
2022/05/06 09:59:35;;;;;;;5.60;5.20;;;15.10;99.90;;;;;;5097800;28;20917;-74
2022/05/06 10:02:01;;;;;;;24.50;6.13;;;15.20;99.90;;;;;;5100618;28;20071;-74
2022/05/06 10:04:27;;;;;;;5.88;4.93;;;15.20;99.90;;;;;;5085317;28;20136;-73
2022/05/06 10:06:56;;;;;;;4.78;4.32;;;15.30;99.90;;;;;;5079671;28;20120;-73
2022/05/06 10:09:22;;;;;;;4.22;3.80;;;15.60;99.90;;;;;;5101805;28;20047;-73
2022/05/06 10:11:51;;;;;;;3.97;3.42;;;15.40;99.90;;;;;;5098477;28;20047;-74
2022/05/06 10:14:18;;;;;;;3.85;3.55;;;15.60;99.90;;;;;;5100917;28;20035;-75
2022/05/06 10:16:44;;;;;;;5.57;3.28;;;15.50;99.90;;;;;;5108235;28;20483;-76
2022/05/06 10:19:26;;;;;;;5.05;3.17;;;15.70;99.90;;;;;;5090556;28;20423;-80
2022/05/06 10:21:52;;;;;;;3.58;3.28;;;15.80;99.90;;;;;;5086592;28;20035;-73
2022/05/06 10:24:20;;;;;;;8.32;4.03;;;16.00;99.90;;;;;;5091694;28;20407;-72
2022/05/06 10:26:53;;;;;;;5.50;4.05;;;16.10;99.90;;;;;;5110144;28;20043;-74
2022/05/06 10:32:25;;;;;;;;;;;16.20;99.90;;;;;;5109320;28;20312;-76
2022/05/06 10:35:12;;;;;;;4.88;3.22;;;16.40;99.90;;;;;;5112439;27;19923;-75
2022/05/06 10:37:45;;;;;;;3.42;1.75;;;16.40;99.90;;;;;;5109146;28;20043;-72
2022/05/06 10:40:23;;;;;;;2.42;1.63;;;16.40;99.90;;;;;;5108771;28;20122;-73
2022/05/06 10:42:49;;;;;;;7.35;2.60;;;16.60;99.90;;;;;;5099839;28;20047;-74
2022/05/06 10:45:33;;;;;;;1.98;1.88;;;16.70;99.90;;;;;;5070880;28;20036;-72
2022/05/06 10:48:00;;;;;;;3.90;1.55;;;16.90;99.90;;;;;;5103055;28;20384;-72
2022/05/06 10:50:29;;;;;;;4.03;1.80;;;17.00;99.90;;;;;;5108971;28;20055;-74
2022/05/06 10:52:57;;;;;;;3.30;2.47;;;17.10;99.90;;;;;;5103221;28;20044;-73
2022/05/06 10:55:23;;;;;;;6.68;2.03;;;17.10;99.90;;;;;;5108652;28;20072;-74
2022/05/06 10:57:54;;;;;;;2.63;1.85;;;17.10;99.90;;;;;;5090822;28;20067;-73
2022/05/06 11:00:22;;;;;;;4.15;2.03;;;17.20;99.90;;;;;;5104338;28;20551;-71
2022/05/06 11:02:48;;;;;;;2.50;2.22;;;17.30;99.90;;;;;;5104813;28;20043;-73
2022/05/06 11:05:18;;;;;;;22.15;3.35;;;17.30;99.90;;;;;;5106022;28;20047;-73
2022/05/06 11:07:45;;;;;;;2.80;2.10;;;17.40;99.90;;;;;;5108237;28;20175;-75
2022/05/06 11:10:16;;;;;;;3.38;2.17;;;17.50;99.90;;;;;;5108234;28;20048;-71
2022/05/06 11:12:48;;;;;;;2.42;2.22;;;17.60;99.90;;;;;;5107481;28;20047;-73
2022/05/06 11:15:22;;;;;;;1.83;1.40;;;17.90;99.90;;;;;;5109044;28;20096;-75
2022/05/06 11:17:48;;;;;;;1.13;1.05;;;17.90;99.90;;;;;;5108345;28;20037;-75
2022/05/06 11:20:26;;;;;;;2.45;1.70;;;18.00;99.90;;;;;;5104760;28;20050;-75
2022/05/06 11:22:54;;;;;;;6.70;1.83;;;18.10;99.90;;;;;;5098710;28;20036;-72
2022/05/06 11:25:24;;;;;;;1.35;0.90;;;18.20;99.90;;;;;;5106016;28;20105;-72
2022/05/06 11:27:51;;;;;;;4.80;1.30;;;18.30;99.30;;;;;;5107106;28;20574;-75
2022/05/06 11:30:18;;;;;;;6.05;1.20;;;18.50;99.90;;;;;;5106942;28;20067;-74
2022/05/06 11:32:55;;;;;;;15.68;2.03;;;18.60;99.40;;;;;;5096938;28;20044;-75
2022/05/06 11:35:45;;;;;;;8.20;1.65;;;18.60;99.90;;;;;;5102376;28;20126;-79
2022/05/06 11:38:11;;;;;;;1.50;1.40;;;18.70;99.50;;;;;;5105033;28;20035;-80
2022/05/06 11:40:37;;;;;;;3.70;1.23;;;18.80;99.00;;;;;;5107393;28;20498;-80
2022/05/06 11:43:03;;;;;;;1.85;1.60;;;19.20;98.90;;;;;;5106706;28;20048;-80
2022/05/06 11:48:18;;;;;;;5.93;2.03;;;19.00;99.40;;;;;;5101490;28;20047;-74
2022/05/06 11:50:45;;;;;;;2.42;1.13;;;19.10;99.30;;;;;;5102410;28;20127;-81
2022/05/06 11:53:13;;;;;;;3.80;1.60;;;19.20;99.40;;;;;;5108677;28;20126;-79
2022/05/06 11:55:42;;;;;;;2.03;1.40;;;19.30;98.80;;;;;;5108720;28;20050;-79
2022/05/06 11:58:11;;;;;;;2.78;1.52;;;19.40;98.60;;;;;;5107513;28;20036;-79
2022/05/06 12:00:37;;;;;;;2.72;1.73;;;19.60;98.20;;;;;;5086130;28;20032;-79
2022/05/06 12:03:06;;;;;;;2.00;1.80;;;19.70;98.30;;;;;;5100485;28;20076;-78
2022/05/06 12:05:36;;;;;;;2.28;2.08;;;19.70;98.90;;;;;;5106249;28;20487;-79
2022/05/06 12:08:01;;;;;;;2.15;1.92;;;20.00;98.40;;;;;;5089573;28;20071;-79
2022/05/06 12:10:28;;;;;;;5.03;2.38;;;20.40;97.80;;;;;;5106274;28;20643;-79
2022/05/06 12:13:10;;;;;;;3.17;1.63;;;20.10;97.70;;;;;;5105501;28;20044;-78
2022/05/06 12:15:39;;;;;;;3.45;1.30;;;20.30;97.80;;;;;;5089043;28;20043;-78
2022/05/06 12:18:10;;;;;;;5.88;1.38;;;20.30;97.10;;;;;;5104809;28;20071;-79
2022/05/06 12:20:40;;;;;;;1.52;1.38;;;20.50;97.70;;;;;;5087321;28;20097;-78
2022/05/06 12:23:14;;;;;;;5.07;1.35;;;20.60;98.00;;;;;;5106670;28;20031;-80
2022/05/06 12:25:40;;;;;;;;;;;21.00;96.50;;;;;;5110147;28;20102;-78
2022/05/06 12:28:17;;;;;;;1.55;1.45;;;21.00;96.10;;;;;;5101089;28;20006;-78
2022/05/06 12:30:46;;;;;;;4.60;2.17;;;20.80;96.10;;;;;;5104605;28;20386;-76
2022/05/06 12:33:14;;;;;;;4.95;1.75;;;20.90;95.50;;;;;;5108619;28;20181;-76
2022/05/06 12:35:58;;;;;;;3.67;1.92;;;20.70;94.50;;;;;;5110908;28;20487;-73
2022/05/06 12:38:45;;;;;;;3.58;1.50;;;20.30;94.80;;;;;;5093823;28;20051;-72
2022/05/06 12:41:20;;;;;;;8.05;1.80;;;20.00;96.00;;;;;;5100691;28;20043;-76
2022/05/06 12:43:50;;;;;;;6.25;1.73;;;19.80;96.30;;;;;;5110132;28;20043;-75
2022/05/06 12:46:26;;;;;;;5.22;2.35;;;19.80;96.00;;;;;;5105421;28;20032;-75
2022/05/06 12:51:39;;;;;;;644.13;79.20;;;19.70;96.80;;;;;;5110406;28;20047;-71
2022/05/06 12:54:05;;;;;;;18.98;3.38;;;20.00;97.50;;;;;;5102539;28;20066;-73
2022/05/06 12:56:30;;;;;;;6.43;3.15;;;19.90;97.40;;;;;;5104226;28;20488;-72
2022/05/06 12:58:56;;;;;;;3.90;2.60;;;19.90;96.40;;;;;;5109662;28;20213;-77
2022/05/06 13:01:22;;;;;;;4.90;1.98;;;19.90;96.30;;;;;;5109533;28;20075;-78
2022/05/06 13:03:48;;;;;;;3.22;2.83;;;19.90;96.30;;;;;;5109891;28;20063;-80
2022/05/06 13:06:14;;;;;;;7.15;2.50;;;20.40;96.70;;;;;;5106720;28;20148;-74
2022/05/06 13:08:39;;;;;;;5.72;2.40;;;19.90;96.70;;;;;;5109797;28;20689;-75
2022/05/06 13:11:05;;;;;;;2.45;2.10;;;20.10;96.50;;;;;;5109700;28;20035;-77
2022/05/06 13:13:30;;;;;;;8.77;2.75;;;20.20;95.60;;;;;;5111317;28;20147;-73
2022/05/06 13:15:58;;;;;;;4.47;2.28;;;20.30;96.10;;;;;;5103796;28;20043;-76